Estación Meteorológica Peña el Pijo (Robertgarden) [ 10/21/18 13:53:29 CEST ]

Fecha Hora Presion(HPa) Temp (°C) Humedad % Rocio (°C) Viento ( m/s) Direccion Lluvia 1Hora(mm) Lluvia 24H(mm) LLuvia Total(mm)
2017-Dec-27 01:01:36 1001.600 5.4 73 0.9         21.23
2017-Dec-27 02:10:07 1000.200 5.8 74 1.5 1.7 WNW     21.23
2017-Dec-27 03:02:40 999.800 5.4 78 1.8 2.9 N     21.23
2017-Dec-27 04:10:07 998.500 5.5 80 2.3         21.23
2017-Dec-27 05:02:23 997.100 5.9 83 3.2     0.51 0.51 21.75
2017-Dec-27 06:02:16 996.400 6.4 85 4.0     1.03 1.55 22.79
2017-Dec-27 07:01:49 996.500 7.4 85 5.0       1.55 22.79
2017-Dec-27 08:01:46 998.200 7.1 85 4.8     1.03 2.59 23.82
2017-Dec-27 09:01:46 999.200 6.1 83 3.4 2.3 NW 1.03 4.14 25.38
2017-Dec-27 10:01:44 1000.300 5.7 84 3.2 0.5 NNE 1.03 5.18 26.41
2017-Dec-27 11:01:43 1001.500 5.6 82 2.7 2.6 N 0.51 5.69 26.93
2017-Dec-27 12:01:49 1001.600 5.3 82 2.3 1.2 WNW 1.03 6.73 27.97
2017-Dec-27 13:01:57 1000.700 6.9 81 3.9 1.8 NNE   6.73 27.97
2017-Dec-27 14:01:42 1000.200 8.2 69 2.9 3.1 WNW   6.73 27.97
2017-Dec-27 15:01:59 999.700 7.9 68 2.4       6.73 27.97
2017-Dec-27 16:01:48 1000.700 7.8 67 2.0       6.73 27.97
2017-Dec-27 17:01:47 1000.800 6.8 67 1.1       6.73 27.97
2017-Dec-27 18:02:02 1001.300 5.5 73 1.0       6.73 27.97
2017-Dec-27 19:01:51 1001.600 5.8 71 1.0 2.2 NNW   6.73 27.97
2017-Dec-27 20:02:08 1001.700 5.8 69 0.6 0.2 E   6.73 27.97
2017-Dec-27 21:01:48 1002.600 5.4 68 -0.0 1.6 N   6.73 27.97
2017-Dec-27 22:01:50 1002.200 5.0 69 -0.2 2.5 NNE   6.73 27.97
2017-Dec-27 23:01:45 1002.700 5.0 69 -0.2 3.0 NW   6.73 27.97

Temperatura Máxima:    Temperatura Mínima:
Presión Máxima:1002.700 Hpa    Presión Mínima:996.400 Hpa


Volver